Sunday, November 23, 2014
16:06 UTC
  |  Log In   |  Register Free
Airport Search:

Fort Smith Regional Airport
(KFSM)

FAA data valid effective November 13, 2014 - January 08, 2015 (unless otherwise noted).

 
 
 
 
 
 
 
 
 
 
 
 
 
 

Current Aviation Weather for Fort Smith Regional Airport (KFSM)

The most recent METAR observation for KFSM was updated at: 1511
METAR Summary (Translated METAR)
KFSM
231453Z 04004KT 7SM BKN027 14/13 A2954 RMK AO2 SLP003 T01390128 56014
KJSV
231455Z AUTO 10005KT 10SM OVC021 15/13 A2954 RMK AO2
(22.2 nm NW from KFSM)
KRKR
231455Z AUTO 21004KT 10SM SCT021 SCT028 16/13 A2954 RMK AO2 T01600131
(22.6 nm SW from KFSM)
TAF Summary (Translated TAF)
KFSM
231357Z 2314/2412 03005KT P6SM BKN015 FM231500 13008KT P6SM BKN025 FM231800 22010G20KT P6SM SCT025 BKN050 FM240200 28015G28KT P6SM BKN050 FM240900 27015KT P6SM SCT050
  Airport Weather Conditions for KFSM

 Current Weather at FSM
57° F
Mostly Cloudy
Northeast winds at 4.6 mph
FSM NOAA Radar

Pressure: 29.54 in
Humidity: 93%
Wind: Northeast at 4.6 MPH (4 KT)
Dew Point: 55.0°F
Visibility: 7.00 mi


Airport Weather Forecast for KFSM

Translated METAR and TAF for KFSM
Translated METAR for KFSM (1601 UTC 23 November 2014)
found at http://aviationweather.gov/adds/metars/
 
METAR text: KFSM 231553Z 07007KT 8SM OVC024 15/13 A2950 RMK AO2 PRESFR SLP989 T01500133
Conditions at: KFSM (FORT SMITH , AR, US) observed 1553 UTC 23 November 2014
Temperature: 15.0°C (59°F)
Dewpoint: 13.3°C (56°F) [RH = 90%]
Pressure (altimeter): 29.50 inches Hg (999.1 mb)
[Sea-level pressure: 998.9 mb]
Winds: from the ENE (70 degrees) at 8 MPH (7 knots; 3.6 m/s)
Visibility: 8 miles (13 km)
Ceiling: 2400 feet AGL
Clouds: overcast cloud deck at 2400 feet AGL
Weather: no significant weather observed at this time
Translated TAF for KFSM
Forecast for: KFSM (FORT SMITH , AR, US)
TAF Text: KFSM 231357Z 2314/2412 03005KT P6SM BKN015
Forecast period: 1400 to 1500 UTC 23 November 2014
Forecast type: FROM: standard forecast or significant change
Winds: from the NNE (30 degrees) at 6 MPH (5 knots; 2.6 m/s)
Visibility: 6 or more miles (10+ km)
Ceiling: 1500 feet AGL
Clouds: broken clouds at 1500 feet AGL
Weather: no significant weather forecast for this period
TAF Text: FM231500 13008KT P6SM BKN025
Forecast period: 1500 to 1800 UTC 23 November 2014
Forecast type: FROM: standard forecast or significant change
Winds: from the SE (130 degrees) at 9 MPH (8 knots; 4.2 m/s)
Visibility: 6 or more miles (10+ km)
Ceiling: 2500 feet AGL
Clouds: broken clouds at 2500 feet AGL
Weather: no significant weather forecast for this period
TAF Text: FM231800 22010G20KT P6SM SCT025 BKN050
Forecast period: 1800 UTC 23 November 2014 to 0200 UTC 24 November 2014
Forecast type: FROM: standard forecast or significant change
Winds: from the SW (220 degrees) at 12 MPH (10 knots; 5.2 m/s)
gusting to 23 MPH (20 knots; 10.4 m/s)
Visibility: 6 or more miles (10+ km)
Ceiling: 5000 feet AGL
Clouds: scattered clouds at 2500 feet AGL
broken clouds at 5000 feet AGL
Weather: no significant weather forecast for this period
TAF Text: FM240200 28015G28KT P6SM BKN050
Forecast period: 0200 to 0900 UTC 24 November 2014
Forecast type: FROM: standard forecast or significant change
Winds: from the W (280 degrees) at 17 MPH (15 knots; 7.8 m/s)
gusting to 32 MPH (28 knots; 14.6 m/s)
Visibility: 6 or more miles (10+ km)
Ceiling: 5000 feet AGL
Clouds: broken clouds at 5000 feet AGL
Weather: no significant weather forecast for this period
TAF Text: FM240900 27015KT P6SM SCT050
Forecast period: 0900 to 1200 UTC 24 November 2014
Forecast type: FROM: standard forecast or significant change
Winds: from the W (270 degrees) at 17 MPH (15 knots; 7.8 m/s)
Visibility: 6 or more miles (10+ km)
Clouds: scattered clouds at 5000 feet AGL
Weather: no significant weather forecast for this period

Find All Airport Services Find A Hotel Find A Rental Car Find A Golf Course Find A Restaurant $100 Hamburger



FBO's on the Field
FBO Company Facility Photos Services Transportation Aviation Fuel Prices: Prices include tax
Catering Weather Repair Courtesy Rental Type 100LL JetA JetA+ MOGAS 8087
 
TAC Air - FSM

This FBO has not yet been rated
FS:Independent
Last Updated: Oct-29
Login to update fuel prices
SS:
Contact TAC Air - FSMMore FBO Information
 
Add another FBO Facility Photos Catering Weather Repair Courtesy Rental Type 100LL JetA JetA+ MOGAS 8087
Services Transportation Aviation Fuel Prices: Prices include tax


model-print
model-print
model-print
model-print